Terminal Aerodrome Forecast
Issued by NWS Missoula, MT

Home | Current Version | Previous Version | Text Only | Print | Product List | Glossary On
Versions: 1 2 3 4 5 6 7 8 9 10 11 12
000
FTUS45 KMSO 031731
TAFBTM
TAF
KBTM 031731Z 0318/0418 14006KT P6SM SKC
     FM040100 17012KT P6SM -SHRA VCTS BKN100CB
     FM040400 23012G20KT P6SM -SHRA BKN060 BKN100
     FM040600 24007KT P6SM BKN100
     FM040800 VRB06KT P6SM -SHRA OVC090=

USA.gov is the U.S. government's official web portal to all federal, state and local government web resources and services.